sensor_id;sensor_type;location;lat;lon;timestamp;temperature;humidity
8008;DHT22;4049;49.468;11.200;2023-08-07T00:02:24;12.50;99.90
8008;DHT22;4049;49.468;11.200;2023-08-07T00:04:51;12.50;99.90
8008;DHT22;4049;49.468;11.200;2023-08-07T00:07:20;12.50;99.90
8008;DHT22;4049;49.468;11.200;2023-08-07T00:09:46;12.50;99.90
8008;DHT22;4049;49.468;11.200;2023-08-07T00:12:13;12.50;99.90
8008;DHT22;4049;49.468;11.200;2023-08-07T00:14:40;12.50;99.90
8008;DHT22;4049;49.468;11.200;2023-08-07T00:17:07;12.50;99.90
8008;DHT22;4049;49.468;11.200;2023-08-07T00:19:34;12.50;99.90
8008;DHT22;4049;49.468;11.200;2023-08-07T00:22:01;12.50;99.90
8008;DHT22;4049;49.468;11.200;2023-08-07T00:24:29;12.50;99.90
8008;DHT22;4049;49.468;11.200;2023-08-07T00:26:56;12.50;99.90
8008;DHT22;4049;49.468;11.200;2023-08-07T00:29:22;12.40;99.90
8008;DHT22;4049;49.468;11.200;2023-08-07T00:31:49;12.40;99.90
8008;DHT22;4049;49.468;11.200;2023-08-07T00:34:16;12.40;99.90
8008;DHT22;4049;49.468;11.200;2023-08-07T00:36:43;12.40;99.90
8008;DHT22;4049;49.468;11.200;2023-08-07T00:39:10;12.40;99.90
8008;DHT22;4049;49.468;11.200;2023-08-07T00:41:38;12.40;99.90
8008;DHT22;4049;49.468;11.200;2023-08-07T00:44:05;12.30;99.90
8008;DHT22;4049;49.468;11.200;2023-08-07T00:46:32;12.40;99.90
8008;DHT22;4049;49.468;11.200;2023-08-07T00:48:59;12.30;99.90
8008;DHT22;4049;49.468;11.200;2023-08-07T00:51:26;12.30;99.90
8008;DHT22;4049;49.468;11.200;2023-08-07T00:53:52;12.40;99.90
8008;DHT22;4049;49.468;11.200;2023-08-07T00:56:20;12.30;99.90
8008;DHT22;4049;49.468;11.200;2023-08-07T00:58:48;12.30;99.90
8008;DHT22;4049;49.468;11.200;2023-08-07T01:01:15;12.30;99.90
8008;DHT22;4049;49.468;11.200;2023-08-07T01:03:42;12.30;99.90
8008;DHT22;4049;49.468;11.200;2023-08-07T01:06:12;12.30;99.90
8008;DHT22;4049;49.468;11.200;2023-08-07T01:08:39;12.20;99.90
8008;DHT22;4049;49.468;11.200;2023-08-07T01:11:15;12.20;99.90
8008;DHT22;4049;49.468;11.200;2023-08-07T01:13:57;12.20;99.90
8008;DHT22;4049;49.468;11.200;2023-08-07T01:16:29;12.20;99.90
8008;DHT22;4049;49.468;11.200;2023-08-07T01:19:00;12.20;99.90
8008;DHT22;4049;49.468;11.200;2023-08-07T01:21:28;12.20;99.90
8008;DHT22;4049;49.468;11.200;2023-08-07T01:23:56;12.20;99.90
8008;DHT22;4049;49.468;11.200;2023-08-07T01:26:23;12.20;99.90
8008;DHT22;4049;49.468;11.200;2023-08-07T01:28:54;12.20;99.90
8008;DHT22;4049;49.468;11.200;2023-08-07T01:31:28;12.20;99.90
8008;DHT22;4049;49.468;11.200;2023-08-07T01:34:01;12.20;99.90
8008;DHT22;4049;49.468;11.200;2023-08-07T01:36:29;12.20;99.90
8008;DHT22;4049;49.468;11.200;2023-08-07T01:38:59;12.20;99.90
8008;DHT22;4049;49.468;11.200;2023-08-07T01:41:27;12.20;99.90
8008;DHT22;4049;49.468;11.200;2023-08-07T01:43:54;12.10;99.90
8008;DHT22;4049;49.468;11.200;2023-08-07T01:46:21;12.10;99.90
8008;DHT22;4049;49.468;11.200;2023-08-07T01:48:48;12.20;99.90
8008;DHT22;4049;49.468;11.200;2023-08-07T01:51:14;12.20;99.90
8008;DHT22;4049;49.468;11.200;2023-08-07T01:53:41;12.10;99.90
8008;DHT22;4049;49.468;11.200;2023-08-07T01:56:09;12.10;99.90
8008;DHT22;4049;49.468;11.200;2023-08-07T01:58:36;12.10;99.90
8008;DHT22;4049;49.468;11.200;2023-08-07T02:01:03;12.20;99.90
8008;DHT22;4049;49.468;11.200;2023-08-07T02:03:30;12.10;99.90
8008;DHT22;4049;49.468;11.200;2023-08-07T02:05:57;12.10;99.90
8008;DHT22;4049;49.468;11.200;2023-08-07T02:08:24;12.10;99.90
8008;DHT22;4049;49.468;11.200;2023-08-07T02:10:50;12.10;99.90
8008;DHT22;4049;49.468;11.200;2023-08-07T02:13:19;12.10;99.90
8008;DHT22;4049;49.468;11.200;2023-08-07T02:15:45;12.00;99.90
8008;DHT22;4049;49.468;11.200;2023-08-07T02:18:12;12.00;99.90
8008;DHT22;4049;49.468;11.200;2023-08-07T02:20:39;12.00;99.90
8008;DHT22;4049;49.468;11.200;2023-08-07T02:23:06;12.00;99.90
8008;DHT22;4049;49.468;11.200;2023-08-07T02:25:33;11.90;99.90
8008;DHT22;4049;49.468;11.200;2023-08-07T02:28:00;11.90;99.90
8008;DHT22;4049;49.468;11.200;2023-08-07T02:30:30;11.90;99.90
8008;DHT22;4049;49.468;11.200;2023-08-07T02:32:57;11.90;99.90
8008;DHT22;4049;49.468;11.200;2023-08-07T02:35:24;11.90;99.90
8008;DHT22;4049;49.468;11.200;2023-08-07T02:37:53;12.00;99.90
8008;DHT22;4049;49.468;11.200;2023-08-07T02:40:19;11.90;99.90
8008;DHT22;4049;49.468;11.200;2023-08-07T02:42:46;12.00;99.90
8008;DHT22;4049;49.468;11.200;2023-08-07T02:45:13;11.90;99.90
8008;DHT22;4049;49.468;11.200;2023-08-07T02:47:41;11.90;99.90
8008;DHT22;4049;49.468;11.200;2023-08-07T02:50:08;11.90;99.90
8008;DHT22;4049;49.468;11.200;2023-08-07T02:52:35;11.90;99.90
8008;DHT22;4049;49.468;11.200;2023-08-07T02:55:02;11.80;99.90
8008;DHT22;4049;49.468;11.200;2023-08-07T02:57:29;11.80;99.90
8008;DHT22;4049;49.468;11.200;2023-08-07T02:59:56;11.90;99.90
8008;DHT22;4049;49.468;11.200;2023-08-07T03:02:23;11.90;99.90
8008;DHT22;4049;49.468;11.200;2023-08-07T03:04:51;11.80;99.90
8008;DHT22;4049;49.468;11.200;2023-08-07T03:07:18;11.90;99.90
8008;DHT22;4049;49.468;11.200;2023-08-07T03:09:45;11.80;99.90
8008;DHT22;4049;49.468;11.200;2023-08-07T03:12:14;11.80;99.90
8008;DHT22;4049;49.468;11.200;2023-08-07T03:14:41;11.80;99.90
8008;DHT22;4049;49.468;11.200;2023-08-07T03:17:08;11.70;99.90
8008;DHT22;4049;49.468;11.200;2023-08-07T03:19:35;11.70;99.90
8008;DHT22;4049;49.468;11.200;2023-08-07T03:22:03;11.70;99.90
8008;DHT22;4049;49.468;11.200;2023-08-07T03:24:30;11.70;99.90
8008;DHT22;4049;49.468;11.200;2023-08-07T03:26:57;11.70;99.90
8008;DHT22;4049;49.468;11.200;2023-08-07T03:29:24;11.70;99.90
8008;DHT22;4049;49.468;11.200;2023-08-07T03:31:50;11.70;99.90
8008;DHT22;4049;49.468;11.200;2023-08-07T03:34:19;11.70;99.90
8008;DHT22;4049;49.468;11.200;2023-08-07T03:36:46;11.70;99.90
8008;DHT22;4049;49.468;11.200;2023-08-07T03:39:14;11.70;99.90
8008;DHT22;4049;49.468;11.200;2023-08-07T03:41:41;11.60;99.90
8008;DHT22;4049;49.468;11.200;2023-08-07T03:44:08;11.60;99.90
8008;DHT22;4049;49.468;11.200;2023-08-07T03:46:34;11.70;99.90
8008;DHT22;4049;49.468;11.200;2023-08-07T03:49:01;11.60;99.90
8008;DHT22;4049;49.468;11.200;2023-08-07T03:51:28;11.60;99.90
8008;DHT22;4049;49.468;11.200;2023-08-07T03:53:57;11.60;99.90
8008;DHT22;4049;49.468;11.200;2023-08-07T03:56:25;11.60;99.90
8008;DHT22;4049;49.468;11.200;2023-08-07T03:58:57;11.60;99.90
8008;DHT22;4049;49.468;11.200;2023-08-07T04:01:24;11.60;99.90
8008;DHT22;4049;49.468;11.200;2023-08-07T04:03:51;11.60;99.90
8008;DHT22;4049;49.468;11.200;2023-08-07T04:06:18;11.60;99.90
8008;DHT22;4049;49.468;11.200;2023-08-07T04:08:46;11.60;99.90
8008;DHT22;4049;49.468;11.200;2023-08-07T04:11:13;11.60;99.90
8008;DHT22;4049;49.468;11.200;2023-08-07T04:13:41;11.60;99.90
8008;DHT22;4049;49.468;11.200;2023-08-07T04:16:08;11.50;99.90
8008;DHT22;4049;49.468;11.200;2023-08-07T04:18:36;11.60;99.90
8008;DHT22;4049;49.468;11.200;2023-08-07T04:21:02;11.50;99.90
8008;DHT22;4049;49.468;11.200;2023-08-07T04:23:29;11.50;99.90
8008;DHT22;4049;49.468;11.200;2023-08-07T04:25:57;11.50;99.90
8008;DHT22;4049;49.468;11.200;2023-08-07T04:28:23;11.50;99.90
8008;DHT22;4049;49.468;11.200;2023-08-07T04:30:52;11.50;99.90
8008;DHT22;4049;49.468;11.200;2023-08-07T04:33:19;11.50;99.90
8008;DHT22;4049;49.468;11.200;2023-08-07T04:35:46;11.50;99.90
8008;DHT22;4049;49.468;11.200;2023-08-07T04:38:13;11.40;99.90
8008;DHT22;4049;49.468;11.200;2023-08-07T04:40:44;11.50;99.90
8008;DHT22;4049;49.468;11.200;2023-08-07T04:43:11;11.50;99.90
8008;DHT22;4049;49.468;11.200;2023-08-07T04:45:38;11.40;99.90
8008;DHT22;4049;49.468;11.200;2023-08-07T04:48:07;11.40;99.90
8008;DHT22;4049;49.468;11.200;2023-08-07T04:50:34;11.40;99.90
8008;DHT22;4049;49.468;11.200;2023-08-07T04:53:01;11.40;99.90
8008;DHT22;4049;49.468;11.200;2023-08-07T04:55:27;11.50;99.90
8008;DHT22;4049;49.468;11.200;2023-08-07T04:57:54;11.50;99.90
8008;DHT22;4049;49.468;11.200;2023-08-07T05:00:22;11.40;99.90
8008;DHT22;4049;49.468;11.200;2023-08-07T05:02:49;11.40;99.90
8008;DHT22;4049;49.468;11.200;2023-08-07T05:05:18;11.50;99.90
8008;DHT22;4049;49.468;11.200;2023-08-07T05:07:46;11.50;99.90
8008;DHT22;4049;49.468;11.200;2023-08-07T05:10:13;11.40;99.90
8008;DHT22;4049;49.468;11.200;2023-08-07T05:12:41;11.40;99.90
8008;DHT22;4049;49.468;11.200;2023-08-07T05:15:08;11.40;99.90
8008;DHT22;4049;49.468;11.200;2023-08-07T05:17:35;11.40;99.90
8008;DHT22;4049;49.468;11.200;2023-08-07T05:20:03;11.40;99.90
8008;DHT22;4049;49.468;11.200;2023-08-07T05:22:32;11.40;99.90
8008;DHT22;4049;49.468;11.200;2023-08-07T05:24:59;11.40;99.90
8008;DHT22;4049;49.468;11.200;2023-08-07T05:27:26;11.40;99.90
8008;DHT22;4049;49.468;11.200;2023-08-07T05:29:53;11.40;99.90
8008;DHT22;4049;49.468;11.200;2023-08-07T05:32:20;11.40;99.90
8008;DHT22;4049;49.468;11.200;2023-08-07T05:34:47;11.40;99.90
8008;DHT22;4049;49.468;11.200;2023-08-07T05:37:14;11.40;99.90
8008;DHT22;4049;49.468;11.200;2023-08-07T05:39:42;11.40;99.90
8008;DHT22;4049;49.468;11.200;2023-08-07T05:42:09;11.30;99.90
8008;DHT22;4049;49.468;11.200;2023-08-07T05:44:37;11.30;99.90
8008;DHT22;4049;49.468;11.200;2023-08-07T05:47:05;11.30;99.90
8008;DHT22;4049;49.468;11.200;2023-08-07T05:49:32;11.30;99.90
8008;DHT22;4049;49.468;11.200;2023-08-07T05:51:59;11.30;99.90
8008;DHT22;4049;49.468;11.200;2023-08-07T05:54:26;11.30;99.90
8008;DHT22;4049;49.468;11.200;2023-08-07T05:56:57;11.30;99.90
8008;DHT22;4049;49.468;11.200;2023-08-07T05:59:24;11.30;99.90
8008;DHT22;4049;49.468;11.200;2023-08-07T06:01:53;11.30;99.90
8008;DHT22;4049;49.468;11.200;2023-08-07T06:04:20;11.30;99.90
8008;DHT22;4049;49.468;11.200;2023-08-07T06:06:47;11.30;99.90
8008;DHT22;4049;49.468;11.200;2023-08-07T06:09:16;11.30;99.90
8008;DHT22;4049;49.468;11.200;2023-08-07T06:15:07;11.30;99.90
8008;DHT22;4049;49.468;11.200;2023-08-07T06:17:34;11.30;99.90
8008;DHT22;4049;49.468;11.200;2023-08-07T06:20:01;11.30;99.90
8008;DHT22;4049;49.468;11.200;2023-08-07T06:22:30;11.30;99.90
8008;DHT22;4049;49.468;11.200;2023-08-07T06:24:58;11.30;99.90
8008;DHT22;4049;49.468;11.200;2023-08-07T06:27:31;11.30;99.90
8008;DHT22;4049;49.468;11.200;2023-08-07T06:29:59;11.40;99.90
8008;DHT22;4049;49.468;11.200;2023-08-07T06:32:30;11.40;99.90
8008;DHT22;4049;49.468;11.200;2023-08-07T06:34:57;11.40;99.90
8008;DHT22;4049;49.468;11.200;2023-08-07T06:37:24;11.40;99.90
8008;DHT22;4049;49.468;11.200;2023-08-07T06:39:51;11.40;99.90
8008;DHT22;4049;49.468;11.200;2023-08-07T06:42:18;11.40;99.90
8008;DHT22;4049;49.468;11.200;2023-08-07T06:44:45;11.40;99.90
8008;DHT22;4049;49.468;11.200;2023-08-07T06:47:12;11.40;99.90
8008;DHT22;4049;49.468;11.200;2023-08-07T06:49:40;11.40;99.90
8008;DHT22;4049;49.468;11.200;2023-08-07T06:52:09;11.40;99.90
8008;DHT22;4049;49.468;11.200;2023-08-07T06:54:36;11.40;99.90
8008;DHT22;4049;49.468;11.200;2023-08-07T06:57:05;11.40;99.90
8008;DHT22;4049;49.468;11.200;2023-08-07T06:59:32;11.40;99.90
8008;DHT22;4049;49.468;11.200;2023-08-07T07:02:03;11.40;99.90
8008;DHT22;4049;49.468;11.200;2023-08-07T07:04:30;11.40;99.90
8008;DHT22;4049;49.468;11.200;2023-08-07T07:06:59;11.40;99.90
8008;DHT22;4049;49.468;11.200;2023-08-07T07:09:26;11.40;99.90
8008;DHT22;4049;49.468;11.200;2023-08-07T07:11:54;11.40;99.90
8008;DHT22;4049;49.468;11.200;2023-08-07T07:14:34;11.40;99.90
8008;DHT22;4049;49.468;11.200;2023-08-07T07:17:01;11.40;99.90
8008;DHT22;4049;49.468;11.200;2023-08-07T07:19:28;11.40;99.90
8008;DHT22;4049;49.468;11.200;2023-08-07T07:21:55;11.40;99.90
8008;DHT22;4049;49.468;11.200;2023-08-07T07:24:24;11.40;99.90
8008;DHT22;4049;49.468;11.200;2023-08-07T07:26:50;11.40;99.90
8008;DHT22;4049;49.468;11.200;2023-08-07T07:29:17;11.40;99.90
8008;DHT22;4049;49.468;11.200;2023-08-07T07:32:38;11.40;99.90
8008;DHT22;4049;49.468;11.200;2023-08-07T07:35:14;11.40;99.90
8008;DHT22;4049;49.468;11.200;2023-08-07T07:37:42;11.40;99.90
8008;DHT22;4049;49.468;11.200;2023-08-07T07:40:11;11.40;99.90
8008;DHT22;4049;49.468;11.200;2023-08-07T07:42:38;11.40;99.90
8008;DHT22;4049;49.468;11.200;2023-08-07T07:45:05;11.40;99.90
8008;DHT22;4049;49.468;11.200;2023-08-07T07:47:32;11.50;99.90
8008;DHT22;4049;49.468;11.200;2023-08-07T07:50:07;11.50;99.90
8008;DHT22;4049;49.468;11.200;2023-08-07T07:52:40;11.50;99.90
8008;DHT22;4049;49.468;11.200;2023-08-07T07:55:10;11.50;99.90
8008;DHT22;4049;49.468;11.200;2023-08-07T07:57:39;11.50;99.90
8008;DHT22;4049;49.468;11.200;2023-08-07T08:00:07;11.50;99.90
8008;DHT22;4049;49.468;11.200;2023-08-07T08:02:39;11.50;99.90
8008;DHT22;4049;49.468;11.200;2023-08-07T08:05:07;11.40;99.90
8008;DHT22;4049;49.468;11.200;2023-08-07T08:07:36;11.50;99.90
8008;DHT22;4049;49.468;11.200;2023-08-07T08:10:07;11.60;99.90
8008;DHT22;4049;49.468;11.200;2023-08-07T08:12:36;11.60;99.90
8008;DHT22;4049;49.468;11.200;2023-08-07T08:15:03;11.60;99.90
8008;DHT22;4049;49.468;11.200;2023-08-07T08:17:30;11.60;99.90
8008;DHT22;4049;49.468;11.200;2023-08-07T08:19:57;11.70;99.90
8008;DHT22;4049;49.468;11.200;2023-08-07T08:22:24;11.60;99.90
8008;DHT22;4049;49.468;11.200;2023-08-07T08:24:55;11.70;99.90
8008;DHT22;4049;49.468;11.200;2023-08-07T08:27:21;11.70;99.90
8008;DHT22;4049;49.468;11.200;2023-08-07T08:29:51;11.70;99.90
8008;DHT22;4049;49.468;11.200;2023-08-07T08:32:18;11.70;99.90
8008;DHT22;4049;49.468;11.200;2023-08-07T08:34:45;11.70;99.90
8008;DHT22;4049;49.468;11.200;2023-08-07T08:37:15;11.70;99.90
8008;DHT22;4049;49.468;11.200;2023-08-07T08:39:41;11.70;99.90
8008;DHT22;4049;49.468;11.200;2023-08-07T08:42:11;11.70;99.90
8008;DHT22;4049;49.468;11.200;2023-08-07T08:44:39;11.70;99.90
8008;DHT22;4049;49.468;11.200;2023-08-07T08:47:08;11.70;99.90
8008;DHT22;4049;49.468;11.200;2023-08-07T08:49:41;11.70;99.90
8008;DHT22;4049;49.468;11.200;2023-08-07T08:52:17;11.70;99.90
8008;DHT22;4049;49.468;11.200;2023-08-07T08:54:44;11.70;99.90
8008;DHT22;4049;49.468;11.200;2023-08-07T08:57:11;11.70;99.90
8008;DHT22;4049;49.468;11.200;2023-08-07T08:59:40;11.80;99.90
8008;DHT22;4049;49.468;11.200;2023-08-07T09:02:09;11.80;99.90
8008;DHT22;4049;49.468;11.200;2023-08-07T09:04:36;11.80;99.90
8008;DHT22;4049;49.468;11.200;2023-08-07T09:07:04;11.80;99.90
8008;DHT22;4049;49.468;11.200;2023-08-07T09:09:32;11.80;99.90
8008;DHT22;4049;49.468;11.200;2023-08-07T09:12:00;11.80;99.90
8008;DHT22;4049;49.468;11.200;2023-08-07T09:14:29;11.80;99.90
8008;DHT22;4049;49.468;11.200;2023-08-07T09:16:59;11.80;99.90
8008;DHT22;4049;49.468;11.200;2023-08-07T09:19:28;11.80;99.90
8008;DHT22;4049;49.468;11.200;2023-08-07T09:21:56;11.80;99.90
8008;DHT22;4049;49.468;11.200;2023-08-07T09:24:23;11.80;99.90
8008;DHT22;4049;49.468;11.200;2023-08-07T09:26:51;11.80;99.90
8008;DHT22;4049;49.468;11.200;2023-08-07T09:29:18;11.80;99.90
8008;DHT22;4049;49.468;11.200;2023-08-07T09:31:46;11.80;99.90
8008;DHT22;4049;49.468;11.200;2023-08-07T09:34:13;11.80;99.90
8008;DHT22;4049;49.468;11.200;2023-08-07T09:36:45;11.80;99.90
8008;DHT22;4049;49.468;11.200;2023-08-07T09:39:11;11.80;99.90
8008;DHT22;4049;49.468;11.200;2023-08-07T09:41:40;11.80;99.90
8008;DHT22;4049;49.468;11.200;2023-08-07T09:44:07;11.80;99.90
8008;DHT22;4049;49.468;11.200;2023-08-07T09:46:41;11.90;99.90
8008;DHT22;4049;49.468;11.200;2023-08-07T09:49:09;11.90;99.90
8008;DHT22;4049;49.468;11.200;2023-08-07T09:51:41;11.90;99.90
8008;DHT22;4049;49.468;11.200;2023-08-07T09:54:11;11.90;99.90
8008;DHT22;4049;49.468;11.200;2023-08-07T09:56:38;11.90;99.90
8008;DHT22;4049;49.468;11.200;2023-08-07T09:59:05;11.90;99.90
8008;DHT22;4049;49.468;11.200;2023-08-07T10:01:32;11.90;99.90
8008;DHT22;4049;49.468;11.200;2023-08-07T10:04:00;11.90;99.90
8008;DHT22;4049;49.468;11.200;2023-08-07T10:06:27;11.90;99.90
8008;DHT22;4049;49.468;11.200;2023-08-07T10:08:55;11.90;99.90
8008;DHT22;4049;49.468;11.200;2023-08-07T10:11:24;11.90;99.90
8008;DHT22;4049;49.468;11.200;2023-08-07T10:13:51;11.90;99.90
8008;DHT22;4049;49.468;11.200;2023-08-07T10:16:19;11.90;99.90
8008;DHT22;4049;49.468;11.200;2023-08-07T10:18:46;12.00;99.90
8008;DHT22;4049;49.468;11.200;2023-08-07T10:21:13;12.00;99.90
8008;DHT22;4049;49.468;11.200;2023-08-07T10:23:41;12.00;99.90
8008;DHT22;4049;49.468;11.200;2023-08-07T10:26:10;12.00;99.90
8008;DHT22;4049;49.468;11.200;2023-08-07T10:28:40;12.00;99.90
8008;DHT22;4049;49.468;11.200;2023-08-07T10:31:09;12.00;99.90
8008;DHT22;4049;49.468;11.200;2023-08-07T10:33:37;12.00;99.90
8008;DHT22;4049;49.468;11.200;2023-08-07T10:36:08;12.00;99.90
8008;DHT22;4049;49.468;11.200;2023-08-07T10:38:36;12.10;99.90
8008;DHT22;4049;49.468;11.200;2023-08-07T10:41:06;12.10;99.90
8008;DHT22;4049;49.468;11.200;2023-08-07T10:43:38;12.10;99.90
8008;DHT22;4049;49.468;11.200;2023-08-07T10:46:10;12.10;99.90
8008;DHT22;4049;49.468;11.200;2023-08-07T10:48:39;12.10;99.90
8008;DHT22;4049;49.468;11.200;2023-08-07T10:51:06;12.10;99.90
8008;DHT22;4049;49.468;11.200;2023-08-07T10:53:36;12.20;99.90
8008;DHT22;4049;49.468;11.200;2023-08-07T10:56:04;12.20;99.90
8008;DHT22;4049;49.468;11.200;2023-08-07T10:58:34;12.20;99.90
8008;DHT22;4049;49.468;11.200;2023-08-07T11:01:24;12.20;99.90
8008;DHT22;4049;49.468;11.200;2023-08-07T11:03:55;12.20;99.90
8008;DHT22;4049;49.468;11.200;2023-08-07T11:06:31;12.20;99.90
8008;DHT22;4049;49.468;11.200;2023-08-07T11:09:25;12.30;99.90
8008;DHT22;4049;49.468;11.200;2023-08-07T11:11:53;12.30;99.90
8008;DHT22;4049;49.468;11.200;2023-08-07T11:14:20;12.30;99.90
8008;DHT22;4049;49.468;11.200;2023-08-07T11:16:48;12.30;99.90
8008;DHT22;4049;49.468;11.200;2023-08-07T11:19:17;12.30;99.90
8008;DHT22;4049;49.468;11.200;2023-08-07T11:21:44;12.30;99.90
8008;DHT22;4049;49.468;11.200;2023-08-07T11:24:12;12.30;99.90
8008;DHT22;4049;49.468;11.200;2023-08-07T11:26:39;12.30;99.90
8008;DHT22;4049;49.468;11.200;2023-08-07T11:29:06;12.30;99.90
8008;DHT22;4049;49.468;11.200;2023-08-07T11:31:34;12.30;99.90
8008;DHT22;4049;49.468;11.200;2023-08-07T11:34:03;12.30;99.90
8008;DHT22;4049;49.468;11.200;2023-08-07T11:36:30;12.30;99.90
8008;DHT22;4049;49.468;11.200;2023-08-07T11:38:59;12.30;99.90
8008;DHT22;4049;49.468;11.200;2023-08-07T11:41:26;12.30;99.90
8008;DHT22;4049;49.468;11.200;2023-08-07T11:43:56;12.30;99.90
8008;DHT22;4049;49.468;11.200;2023-08-07T11:46:23;12.30;99.90
8008;DHT22;4049;49.468;11.200;2023-08-07T11:48:55;12.30;99.90
8008;DHT22;4049;49.468;11.200;2023-08-07T11:51:33;12.40;99.90
8008;DHT22;4049;49.468;11.200;2023-08-07T11:54:03;12.30;99.90
8008;DHT22;4049;49.468;11.200;2023-08-07T11:56:41;12.40;99.90
8008;DHT22;4049;49.468;11.200;2023-08-07T11:59:11;12.40;99.90
8008;DHT22;4049;49.468;11.200;2023-08-07T12:01:38;12.30;99.90
8008;DHT22;4049;49.468;11.200;2023-08-07T12:04:10;12.40;99.90
8008;DHT22;4049;49.468;11.200;2023-08-07T12:06:38;12.40;99.90
8008;DHT22;4049;49.468;11.200;2023-08-07T12:09:11;12.40;99.90
8008;DHT22;4049;49.468;11.200;2023-08-07T12:11:40;12.40;99.90
8008;DHT22;4049;49.468;11.200;2023-08-07T12:14:13;12.40;99.90
8008;DHT22;4049;49.468;11.200;2023-08-07T12:16:44;12.50;99.90
8008;DHT22;4049;49.468;11.200;2023-08-07T12:19:12;12.50;99.90
8008;DHT22;4049;49.468;11.200;2023-08-07T12:21:41;12.40;99.90
8008;DHT22;4049;49.468;11.200;2023-08-07T12:24:09;12.50;99.90
8008;DHT22;4049;49.468;11.200;2023-08-07T12:26:35;12.50;99.90
8008;DHT22;4049;49.468;11.200;2023-08-07T12:29:02;12.50;99.90
8008;DHT22;4049;49.468;11.200;2023-08-07T12:31:29;12.50;99.90
8008;DHT22;4049;49.468;11.200;2023-08-07T12:33:56;12.50;99.90
8008;DHT22;4049;49.468;11.200;2023-08-07T12:36:23;12.60;99.90
8008;DHT22;4049;49.468;11.200;2023-08-07T12:38:51;12.60;99.90
8008;DHT22;4049;49.468;11.200;2023-08-07T12:41:27;12.70;99.90
8008;DHT22;4049;49.468;11.200;2023-08-07T12:43:56;12.70;99.90
8008;DHT22;4049;49.468;11.200;2023-08-07T12:46:24;12.70;99.90
8008;DHT22;4049;49.468;11.200;2023-08-07T12:48:51;12.70;99.90
8008;DHT22;4049;49.468;11.200;2023-08-07T12:51:18;12.70;99.90
8008;DHT22;4049;49.468;11.200;2023-08-07T12:53:52;12.70;99.90
8008;DHT22;4049;49.468;11.200;2023-08-07T12:56:19;12.70;99.90
8008;DHT22;4049;49.468;11.200;2023-08-07T12:58:46;12.70;99.90
8008;DHT22;4049;49.468;11.200;2023-08-07T13:01:21;12.70;99.90
8008;DHT22;4049;49.468;11.200;2023-08-07T13:03:57;12.70;99.90
8008;DHT22;4049;49.468;11.200;2023-08-07T13:06:38;12.60;99.90
8008;DHT22;4049;49.468;11.200;2023-08-07T13:09:06;12.60;99.90
8008;DHT22;4049;49.468;11.200;2023-08-07T13:11:36;12.60;99.90
8008;DHT22;4049;49.468;11.200;2023-08-07T13:14:03;12.60;99.90
8008;DHT22;4049;49.468;11.200;2023-08-07T13:16:30;12.60;99.90
8008;DHT22;4049;49.468;11.200;2023-08-07T13:18:57;12.60;99.90
8008;DHT22;4049;49.468;11.200;2023-08-07T13:21:24;12.50;99.90
8008;DHT22;4049;49.468;11.200;2023-08-07T13:23:55;12.60;99.90
8008;DHT22;4049;49.468;11.200;2023-08-07T13:26:23;12.60;99.90
8008;DHT22;4049;49.468;11.200;2023-08-07T13:28:52;12.50;99.90
8008;DHT22;4049;49.468;11.200;2023-08-07T13:31:19;12.50;99.90
8008;DHT22;4049;49.468;11.200;2023-08-07T13:33:46;12.50;99.90
8008;DHT22;4049;49.468;11.200;2023-08-07T13:36:13;12.60;99.90
8008;DHT22;4049;49.468;11.200;2023-08-07T13:38:41;12.50;99.90
8008;DHT22;4049;49.468;11.200;2023-08-07T13:41:07;12.50;99.90
8008;DHT22;4049;49.468;11.200;2023-08-07T13:43:36;12.50;99.90
8008;DHT22;4049;49.468;11.200;2023-08-07T13:46:02;12.50;99.90
8008;DHT22;4049;49.468;11.200;2023-08-07T13:48:29;12.50;99.90
8008;DHT22;4049;49.468;11.200;2023-08-07T13:50:59;12.50;99.90
8008;DHT22;4049;49.468;11.200;2023-08-07T13:53:29;12.50;99.90
8008;DHT22;4049;49.468;11.200;2023-08-07T13:55:56;12.50;99.90
8008;DHT22;4049;49.468;11.200;2023-08-07T13:58:23;12.50;99.90
8008;DHT22;4049;49.468;11.200;2023-08-07T14:00:52;12.60;99.90
8008;DHT22;4049;49.468;11.200;2023-08-07T14:03:25;12.50;99.90
8008;DHT22;4049;49.468;11.200;2023-08-07T14:06:13;12.50;99.90
8008;DHT22;4049;49.468;11.200;2023-08-07T14:08:40;12.60;99.90
8008;DHT22;4049;49.468;11.200;2023-08-07T14:11:44;12.60;99.90
8008;DHT22;4049;49.468;11.200;2023-08-07T14:14:11;12.60;99.90
8008;DHT22;4049;49.468;11.200;2023-08-07T14:16:41;12.60;99.90
8008;DHT22;4049;49.468;11.200;2023-08-07T14:19:11;12.60;99.90
8008;DHT22;4049;49.468;11.200;2023-08-07T14:21:41;12.60;99.90
8008;DHT22;4049;49.468;11.200;2023-08-07T14:24:08;12.60;99.90
8008;DHT22;4049;49.468;11.200;2023-08-07T14:29:15;12.60;99.90
8008;DHT22;4049;49.468;11.200;2023-08-07T14:31:58;12.60;99.90
8008;DHT22;4049;49.468;11.200;2023-08-07T14:34:25;12.60;99.90
8008;DHT22;4049;49.468;11.200;2023-08-07T14:36:52;12.60;99.90
8008;DHT22;4049;49.468;11.200;2023-08-07T14:39:19;12.60;99.90
8008;DHT22;4049;49.468;11.200;2023-08-07T14:41:46;12.60;99.90
8008;DHT22;4049;49.468;11.200;2023-08-07T14:44:23;12.60;99.90
8008;DHT22;4049;49.468;11.200;2023-08-07T14:46:50;12.60;99.90
8008;DHT22;4049;49.468;11.200;2023-08-07T14:49:44;12.60;99.90
8008;DHT22;4049;49.468;11.200;2023-08-07T14:52:11;12.60;99.90
8008;DHT22;4049;49.468;11.200;2023-08-07T14:54:38;12.60;99.90
8008;DHT22;4049;49.468;11.200;2023-08-07T14:57:05;12.60;99.90
8008;DHT22;4049;49.468;11.200;2023-08-07T14:59:32;12.60;99.90
8008;DHT22;4049;49.468;11.200;2023-08-07T15:01:59;12.60;99.90
8008;DHT22;4049;49.468;11.200;2023-08-07T15:04:26;12.70;99.90
8008;DHT22;4049;49.468;11.200;2023-08-07T15:07:13;12.70;99.90
8008;DHT22;4049;49.468;11.200;2023-08-07T15:09:43;12.70;99.90
8008;DHT22;4049;49.468;11.200;2023-08-07T15:12:17;12.70;99.90
8008;DHT22;4049;49.468;11.200;2023-08-07T15:14:43;12.70;99.90
8008;DHT22;4049;49.468;11.200;2023-08-07T15:17:30;12.70;99.90
8008;DHT22;4049;49.468;11.200;2023-08-07T15:20:08;12.70;99.90
8008;DHT22;4049;49.468;11.200;2023-08-07T15:22:37;12.70;99.90
8008;DHT22;4049;49.468;11.200;2023-08-07T15:25:06;12.80;99.90
8008;DHT22;4049;49.468;11.200;2023-08-07T15:27:36;12.80;99.90
8008;DHT22;4049;49.468;11.200;2023-08-07T15:30:10;12.80;99.90
8008;DHT22;4049;49.468;11.200;2023-08-07T15:32:45;12.90;99.90
8008;DHT22;4049;49.468;11.200;2023-08-07T15:35:12;12.90;99.90
8008;DHT22;4049;49.468;11.200;2023-08-07T15:37:41;12.90;99.90
8008;DHT22;4049;49.468;11.200;2023-08-07T15:40:26;12.90;99.90
8008;DHT22;4049;49.468;11.200;2023-08-07T15:42:53;13.00;99.90
8008;DHT22;4049;49.468;11.200;2023-08-07T15:45:21;13.00;99.90
8008;DHT22;4049;49.468;11.200;2023-08-07T15:47:49;13.10;99.90
8008;DHT22;4049;49.468;11.200;2023-08-07T15:50:17;13.10;99.90
8008;DHT22;4049;49.468;11.200;2023-08-07T15:52:47;13.10;99.90
8008;DHT22;4049;49.468;11.200;2023-08-07T15:55:34;13.20;99.90
8008;DHT22;4049;49.468;11.200;2023-08-07T15:58:02;13.20;99.90
8008;DHT22;4049;49.468;11.200;2023-08-07T16:00:36;13.20;99.90
8008;DHT22;4049;49.468;11.200;2023-08-07T16:03:12;13.20;99.90